Time,TemperatureF,DewpointF,PressureIn,WindDirection,WindDirectionDegrees,WindSpeedMPH,WindSpeedGustMPH,Humidity,HourlyPrecipIn,Conditions,Clouds,dailyrainin,SoftwareType,DateUTC
2013-09-01 00:00:00,70.6,69.7,29.77,ESE,105,0.0,0.0,97,0.02,,---,0.00,VWS V14.01,2013-09-01 04:00:00,
2013-09-01 00:30:00,70.2,69.3,29.76,ESE,105,0.0,0.0,97,0.00,,---,0.00,VWS V14.01,2013-09-01 04:30:00,
2013-09-01 01:00:00,70.2,69.3,29.76,ESE,105,0.0,0.0,97,0.00,,---,0.00,VWS V14.01,2013-09-01 05:00:00,
2013-09-01 01:30:00,69.5,68.6,29.75,ESE,104,0.0,0.0,97,0.00,,---,0.00,VWS V14.01,2013-09-01 05:30:00,
2013-09-01 02:00:00,68.7,67.8,29.75,ESE,104,0.0,0.0,97,0.00,,---,0.00,VWS V14.01,2013-09-01 06:00:00,
2013-09-01 02:30:00,68.5,67.6,29.75,ESE,104,0.0,0.0,97,0.00,,---,0.00,VWS V14.01,2013-09-01 06:30:00,
2013-09-01 03:00:00,68.4,67.8,29.74,ESE,104,0.0,0.0,98,0.00,,---,0.00,VWS V14.01,2013-09-01 07:00:00,
2013-09-01 03:30:00,67.9,67.3,29.73,ESE,105,0.0,0.0,98,0.00,,---,0.00,VWS V14.01,2013-09-01 07:30:00,
2013-09-01 04:00:00,67.5,66.9,29.73,ESE,105,0.0,0.0,98,0.00,,---,0.00,VWS V14.01,2013-09-01 08:00:00,
2013-09-01 04:30:00,67.3,66.7,29.73,ESE,105,0.0,0.0,98,0.00,,---,0.00,VWS V14.01,2013-09-01 08:30:00,
2013-09-01 05:00:00,67.0,66.4,29.74,ESE,105,0.0,0.0,98,0.00,,---,0.00,VWS V14.01,2013-09-01 09:00:00,
2013-09-01 05:30:00,66.7,66.1,29.74,ESE,105,0.0,0.0,98,0.00,,---,0.00,VWS V14.01,2013-09-01 09:30:00,
2013-09-01 06:00:00,66.5,65.9,29.74,ESE,106,0.0,0.0,98,0.00,,---,0.00,VWS V14.01,2013-09-01 10:00:00,
2013-09-01 06:30:00,66.5,65.9,29.73,ESE,105,0.0,0.0,98,0.00,,---,0.00,VWS V14.01,2013-09-01 10:30:00,
2013-09-01 07:00:00,66.2,65.6,29.74,ESE,105,0.0,0.0,98,0.00,,---,0.00,VWS V14.01,2013-09-01 11:00:00,
2013-09-01 07:30:00,66.2,65.6,29.74,ESE,122,0.0,0.0,98,0.01,,---,0.01,VWS V14.01,2013-09-01 11:30:00,
2013-09-01 08:00:00,66.8,66.2,29.74,ESE,114,0.0,3.0,98,0.01,,---,0.01,VWS V14.01,2013-09-01 12:00:00,
2013-09-01 08:30:00,67.7,67.4,29.75,SSW,205,0.0,0.0,99,0.01,,---,0.01,VWS V14.01,2013-09-01 12:30:00,
2013-09-01 09:00:00,68.6,68.3,29.75,South,191,0.0,0.0,99,0.00,,---,0.01,VWS V14.01,2013-09-01 13:00:00,
2013-09-01 09:30:00,69.5,69.2,29.73,ESE,120,0.0,1.0,99,0.00,,---,0.01,VWS V14.01,2013-09-01 13:30:00,
2013-09-01 10:00:00,70.7,70.1,29.74,WSW,246,3.0,7.0,98,0.00,,---,0.01,VWS V14.01,2013-09-01 14:00:00,
2013-09-01 10:30:00,71.7,70.8,29.75,WSW,242,0.0,6.0,97,0.00,,---,0.01,VWS V14.01,2013-09-01 14:30:00,
2013-09-01 11:00:00,72.9,71.1,29.76,West,274,4.0,6.0,94,0.00,,---,0.01,VWS V14.01,2013-09-01 15:00:00,
2013-09-01 11:30:00,73.8,70.7,29.75,WSW,248,1.0,6.0,90,0.00,,---,0.01,VWS V14.01,2013-09-01 15:30:00,
2013-09-01 12:00:00,73.7,70.9,29.76,West,271,3.0,7.0,91,0.00,,---,0.01,VWS V14.01,2013-09-01 16:00:00,
2013-09-01 12:30:00,74.2,71.4,29.76,WSW,243,1.0,7.0,91,0.00,,---,0.01,VWS V14.01,2013-09-01 16:30:00,
2013-09-01 13:00:00,76.2,72.7,29.75,WNW,289,0.0,5.0,89,0.00,,---,0.01,VWS V14.01,2013-09-01 17:00:00,
2013-09-01 13:30:00,77.3,72.1,29.75,WNW,297,2.0,7.0,84,0.00,,---,0.01,VWS V14.01,2013-09-01 17:30:00,
2013-09-01 14:00:00,78.1,72.5,29.75,West,272,0.0,4.0,83,0.00,,---,0.01,VWS V14.01,2013-09-01 18:00:00,
2013-09-01 14:30:00,79.7,73.0,29.74,WSW,248,2.0,6.0,80,0.00,,---,0.01,VWS V14.01,2013-09-01 18:30:00,
2013-09-01 15:00:00,80.1,73.4,29.74,WSW,250,2.0,5.0,80,0.00,,---,0.01,VWS V14.01,2013-09-01 19:00:00,
2013-09-01 15:30:00,81.3,73.0,29.74,West,267,3.0,8.0,76,0.00,,---,0.01,VWS V14.01,2013-09-01 19:30:00,
2013-09-01 16:00:00,81.2,72.5,29.72,West,263,1.0,7.0,75,0.00,,---,0.01,VWS V14.01,2013-09-01 20:00:00,
2013-09-01 16:30:00,81.2,73.3,29.73,West,264,2.0,8.0,77,0.00,,---,0.01,VWS V14.01,2013-09-01 20:30:00,
2013-09-01 17:00:00,81.1,73.6,29.72,West,262,2.0,6.0,78,0.00,,---,0.01,VWS V14.01,2013-09-01 21:00:00,
2013-09-01 17:30:00,82.3,74.0,29.72,SW,236,2.0,8.0,76,0.00,,---,0.01,VWS V14.01,2013-09-01 21:30:00,
2013-09-01 18:00:00,82.7,74.0,29.71,West,270,2.0,5.0,75,0.00,,---,0.01,VWS V14.01,2013-09-01 22:00:00,
2013-09-01 18:30:00,82.3,74.0,29.72,WSW,237,2.0,7.0,76,0.00,,---,0.01,VWS V14.01,2013-09-01 22:30:00,
2013-09-01 19:00:00,81.5,73.6,29.72,WSW,240,1.0,6.0,77,0.00,,---,0.01,VWS V14.01,2013-09-01 23:00:00,
2013-09-01 19:30:00,80.9,74.5,29.72,WSW,245,0.0,7.0,81,0.00,,---,0.01,VWS V14.01,2013-09-01 23:30:00,
2013-09-01 20:00:00,78.2,73.0,29.73,SW,217,0.0,3.0,84,0.00,,---,0.01,VWS V14.01,2013-09-02 00:00:00,
2013-09-01 20:30:00,75.5,72.0,29.74,SE,139,0.0,2.0,89,0.00,,---,0.01,VWS V14.01,2013-09-02 00:30:00,
2013-09-01 21:00:00,74.9,72.1,29.74,SW,215,0.0,3.0,91,0.00,,---,0.01,VWS V14.01,2013-09-02 01:00:00,
2013-09-01 21:30:00,74.1,71.6,29.74,NW,314,0.0,3.0,92,0.00,,---,0.01,VWS V14.01,2013-09-02 01:30:00,
2013-09-01 22:00:00,73.3,71.5,29.75,West,259,1.0,2.0,94,0.00,,---,0.01,VWS V14.01,2013-09-02 02:00:00,
2013-09-01 22:30:00,73.9,71.8,29.74,SW,221,0.0,2.0,93,0.00,,---,0.01,VWS V14.01,2013-09-02 02:30:00,
2013-09-01 23:00:00,72.8,71.0,29.73,SW,229,0.0,3.0,94,0.00,,---,0.01,VWS V14.01,2013-09-02 03:00:00,
2013-09-01 23:30:00,73.1,70.3,29.74,WSW,254,1.0,6.0,91,0.00,,---,0.01,VWS V14.01,2013-09-02 03:30:00,